createdAt,value
2018-06-18T00:02:12.981Z,4.77
2018-06-18T00:04:40.295Z,4.67
2018-06-18T00:07:07.607Z,4.10
2018-06-18T00:09:35.023Z,4.23
2018-06-18T00:12:02.403Z,4.40
2018-06-18T00:14:29.784Z,3.90
2018-06-18T00:16:57.098Z,4.07
2018-06-18T00:19:24.495Z,3.70
2018-06-18T00:21:51.843Z,4.60
2018-06-18T00:24:19.200Z,4.20
2018-06-18T00:26:46.536Z,4.03
2018-06-18T00:29:13.914Z,4.40
2018-06-18T00:31:41.610Z,3.90
2018-06-18T00:34:09.023Z,4.13
2018-06-18T00:36:36.362Z,3.87
2018-06-18T00:39:04.717Z,4.50
2018-06-18T00:41:32.219Z,4.47
2018-06-18T00:43:59.668Z,4.57
2018-06-18T00:46:27.291Z,4.33
2018-06-18T00:48:54.661Z,4.93
2018-06-18T00:51:22.197Z,3.90
2018-06-18T00:53:49.685Z,4.07
2018-06-18T00:56:17.391Z,5.00
2018-06-18T00:58:44.880Z,4.83
2018-06-18T01:01:12.657Z,4.80
2018-06-18T01:03:40.009Z,5.20
2018-06-18T01:06:07.640Z,4.43
2018-06-18T01:08:35.103Z,3.90
2018-06-18T01:11:02.746Z,4.50
2018-06-18T01:13:30.198Z,4.00
2018-06-18T01:15:57.856Z,3.50
2018-06-18T01:18:25.661Z,3.83
2018-06-18T01:20:53.124Z,3.97
2018-06-18T01:23:24.305Z,4.87
2018-06-18T01:25:51.668Z,4.70
2018-06-18T01:28:19.212Z,4.47
2018-06-18T01:30:46.676Z,4.43
2018-06-18T01:33:14.002Z,4.67
2018-06-18T01:35:41.524Z,4.47
2018-06-18T01:38:08.850Z,4.60
2018-06-18T01:40:36.199Z,4.47
2018-06-18T01:43:03.865Z,4.50
2018-06-18T01:45:31.294Z,4.17
2018-06-18T01:47:58.852Z,4.60
2018-06-18T01:50:26.218Z,4.00
2018-06-18T01:52:53.572Z,4.50
2018-06-18T01:55:21.026Z,4.90
2018-06-18T01:57:48.353Z,4.80
2018-06-18T02:00:15.821Z,5.03
2018-06-18T02:02:43.213Z,4.63
2018-06-18T02:05:10.530Z,4.10
2018-06-18T02:07:37.909Z,4.50
2018-06-18T02:10:05.356Z,4.57
2018-06-18T02:12:32.726Z,5.10
2018-06-18T02:15:00.126Z,4.70
2018-06-18T02:17:27.614Z,3.77
2018-06-18T02:19:55.005Z,4.03
2018-06-18T02:22:22.340Z,4.30
2018-06-18T02:24:49.774Z,4.10
2018-06-18T02:27:18.176Z,4.40
2018-06-18T02:29:51.333Z,4.60
2018-06-18T02:32:24.094Z,4.43
2018-06-18T02:34:56.820Z,4.60
2018-06-18T02:37:29.621Z,4.87
2018-06-18T02:40:02.398Z,4.97
2018-06-18T02:42:29.893Z,4.13
2018-06-18T02:44:57.384Z,4.43
2018-06-18T02:47:24.824Z,4.80
2018-06-18T02:49:53.186Z,4.77
2018-06-18T02:52:20.676Z,4.50
2018-06-18T02:54:48.072Z,4.30
2018-06-18T02:57:15.917Z,4.10
2018-06-18T02:59:43.451Z,4.87
2018-06-18T03:02:10.796Z,4.07
2018-06-18T03:04:38.581Z,4.63
2018-06-18T03:07:07.083Z,4.63
2018-06-18T03:09:34.412Z,4.67
2018-06-18T03:12:01.767Z,4.63
2018-06-18T03:14:29.225Z,4.53
2018-06-18T03:16:56.561Z,4.60
2018-06-18T03:19:29.189Z,4.67
2018-06-18T03:22:01.955Z,3.93
2018-06-18T03:24:34.598Z,4.90
2018-06-18T03:27:07.381Z,5.00
2018-06-18T03:29:35.793Z,4.90
2018-06-18T03:32:04.406Z,4.30
2018-06-18T03:34:31.754Z,4.70
2018-06-18T03:36:59.462Z,5.13
2018-06-18T03:39:26.879Z,4.73
2018-06-18T03:41:54.166Z,4.60
2018-06-18T03:44:24.453Z,5.20
2018-06-18T03:46:52.202Z,5.20
2018-06-18T03:49:19.548Z,4.40
2018-06-18T03:51:46.886Z,4.60
2018-06-18T03:54:14.318Z,4.33
2018-06-18T03:56:41.859Z,4.70
2018-06-18T03:59:09.209Z,4.80
2018-06-18T04:01:45.409Z,4.40
2018-06-18T04:04:18.093Z,4.70
2018-06-18T04:06:50.818Z,4.57
2018-06-18T04:09:23.351Z,5.23
2018-06-18T04:11:55.996Z,4.60
2018-06-18T04:14:23.392Z,4.57
2018-06-18T04:16:50.742Z,4.70
2018-06-18T04:19:18.104Z,4.40
2018-06-18T04:21:45.441Z,4.40
2018-06-18T04:24:13.063Z,4.23
2018-06-18T04:26:40.559Z,3.73
2018-06-18T04:29:07.869Z,4.83
2018-06-18T04:31:35.160Z,4.20
2018-06-18T04:34:35.630Z,3.80
2018-06-18T04:37:02.951Z,3.70
2018-06-18T04:39:30.251Z,4.40
2018-06-18T04:42:02.989Z,4.43
2018-06-18T04:44:35.632Z,4.60
2018-06-18T04:47:08.292Z,4.17
2018-06-18T04:49:41.129Z,5.00
2018-06-18T04:52:08.444Z,5.10
2018-06-18T04:54:35.720Z,4.80
2018-06-18T04:57:03.138Z,4.50
2018-06-18T04:59:30.955Z,4.57
2018-06-18T05:01:59.648Z,4.70
2018-06-18T05:04:26.995Z,5.30
2018-06-18T05:06:54.305Z,5.00
2018-06-18T05:10:26.726Z,4.50
2018-06-18T05:12:54.691Z,4.07
2018-06-18T05:15:24.457Z,3.70
2018-06-18T05:17:51.764Z,4.30
2018-06-18T05:20:19.576Z,4.13
2018-06-18T05:22:46.891Z,5.07
2018-06-18T05:25:14.213Z,4.37
2018-06-18T05:27:41.536Z,4.93
2018-06-18T05:30:10.110Z,4.63
2018-06-18T05:32:37.492Z,4.63
2018-06-18T05:35:05.411Z,4.33
2018-06-18T05:37:41.571Z,4.73
2018-06-18T05:40:08.873Z,5.43
2018-06-18T05:42:36.201Z,5.00
2018-06-18T05:45:03.629Z,4.93
2018-06-18T05:47:30.965Z,4.60
2018-06-18T05:49:58.300Z,4.80
2018-06-18T05:52:25.965Z,4.93
2018-06-18T05:54:53.351Z,4.40
2018-06-18T05:57:20.808Z,4.87
2018-06-18T05:59:48.171Z,4.40
2018-06-18T06:02:15.743Z,4.30
2018-06-18T06:04:43.266Z,4.33
2018-06-18T06:07:10.620Z,5.00
2018-06-18T06:09:37.931Z,4.67
2018-06-18T06:12:06.074Z,4.33
2018-06-18T06:14:33.452Z,4.67
2018-06-18T06:17:00.768Z,4.00
2018-06-18T06:19:28.119Z,4.57
2018-06-18T06:21:55.514Z,4.20
2018-06-18T06:24:23.068Z,4.00
2018-06-18T06:26:50.438Z,3.67
2018-06-18T06:29:18.688Z,4.20
2018-06-18T06:31:46.071Z,4.73
2018-06-18T06:34:13.528Z,4.23
2018-06-18T06:36:40.831Z,4.57
2018-06-18T06:39:08.911Z,3.90
2018-06-18T06:41:44.690Z,3.90
2018-06-18T06:44:12.066Z,5.00
2018-06-18T06:46:39.484Z,3.90
2018-06-18T06:49:06.991Z,2.90
2018-06-18T06:51:34.368Z,3.30
2018-06-18T06:54:01.800Z,3.27
2018-06-18T06:56:29.271Z,4.27
2018-06-18T06:58:56.704Z,3.40
2018-06-18T07:01:24.180Z,3.20
2018-06-18T07:03:51.501Z,3.27
2018-06-18T07:06:18.868Z,2.97
2018-06-18T07:08:46.375Z,3.73
2018-06-18T07:11:13.845Z,2.90
2018-06-18T07:13:41.273Z,3.00
2018-06-18T07:16:08.786Z,2.37
2018-06-18T07:18:36.173Z,3.03
2018-06-18T07:21:03.489Z,3.13
2018-06-18T07:23:30.862Z,3.00
2018-06-18T07:25:58.260Z,2.70
2018-06-18T07:28:25.625Z,1.90
2018-06-18T07:30:52.967Z,2.13
2018-06-18T07:33:20.362Z,2.33
2018-06-18T07:35:47.680Z,2.30
2018-06-18T07:38:15.071Z,2.20
2018-06-18T07:40:42.428Z,2.27
2018-06-18T07:43:09.758Z,2.27
2018-06-18T07:45:37.499Z,2.83
2018-06-18T07:48:05.551Z,2.20
2018-06-18T07:50:33.645Z,2.43
2018-06-18T07:53:01.173Z,2.20
2018-06-18T07:55:28.571Z,2.30
2018-06-18T07:57:56.347Z,2.50
2018-06-18T08:00:23.715Z,1.90
2018-06-18T08:02:51.045Z,2.73
2018-06-18T08:05:18.456Z,5.07
2018-06-18T08:07:45.850Z,2.90
2018-06-18T08:10:13.331Z,2.20
2018-06-18T08:12:40.723Z,2.50
2018-06-18T08:15:08.242Z,2.30
2018-06-18T08:17:35.579Z,2.60
2018-06-18T08:20:03.253Z,2.30
2018-06-18T08:22:30.776Z,2.57
2018-06-18T08:24:58.188Z,3.50
2018-06-18T08:27:25.673Z,2.50
2018-06-18T08:29:53.215Z,2.10
2018-06-18T08:32:21.258Z,2.10
2018-06-18T08:34:48.617Z,3.00
2018-06-18T08:37:16.134Z,2.87
2018-06-18T08:39:43.554Z,2.20
2018-06-18T08:42:10.935Z,2.40
2018-06-18T08:44:38.320Z,2.67
2018-06-18T08:47:05.680Z,2.00
2018-06-18T08:49:33.103Z,2.37
2018-06-18T08:54:11.060Z,2.87
2018-06-18T08:56:43.821Z,2.17
2018-06-18T08:59:16.489Z,2.70
2018-06-18T09:01:45.463Z,2.30
2018-06-18T09:04:17.695Z,2.60
2018-06-18T09:06:46.218Z,1.80
2018-06-18T09:09:13.616Z,2.50
2018-06-18T09:11:40.977Z,2.27
2018-06-18T09:14:08.353Z,2.70
2018-06-18T09:16:35.842Z,2.53
2018-06-18T09:19:03.220Z,2.70
2018-06-18T09:21:30.579Z,2.20
2018-06-18T09:23:58.186Z,2.20
2018-06-18T09:26:25.579Z,2.63
2018-06-18T09:28:52.936Z,2.63
2018-06-18T09:31:20.402Z,2.93
2018-06-18T09:33:47.793Z,2.33
2018-06-18T09:36:15.356Z,2.57
2018-06-18T09:38:42.789Z,2.77
2018-06-18T09:41:10.214Z,2.43
2018-06-18T09:43:37.664Z,2.53
2018-06-18T09:46:05.054Z,2.30
2018-06-18T09:48:37.661Z,2.73
2018-06-18T09:51:10.440Z,2.90
2018-06-18T09:53:43.233Z,2.83
2018-06-18T09:56:15.914Z,2.67
2018-06-18T09:58:48.773Z,2.93
2018-06-18T10:01:21.273Z,2.50
2018-06-18T10:03:48.830Z,3.03
2018-06-18T10:06:17.345Z,2.80
2018-06-18T10:08:44.750Z,2.80
2018-06-18T10:11:12.270Z,2.60
2018-06-18T10:13:39.590Z,2.50
2018-06-18T10:16:14.254Z,2.60
2018-06-18T10:18:41.959Z,3.13
2018-06-18T10:21:09.323Z,2.67
2018-06-18T10:23:36.911Z,2.03
2018-06-18T10:26:04.262Z,2.50
2018-06-18T10:28:42.225Z,2.43
2018-06-18T10:31:09.857Z,2.23
2018-06-18T10:33:43.028Z,2.70
2018-06-18T10:36:15.939Z,2.83
2018-06-18T10:38:48.541Z,2.40
2018-06-18T10:41:21.424Z,2.30
2018-06-18T10:43:49.447Z,2.40
2018-06-18T10:46:16.741Z,2.70
2018-06-18T10:48:44.090Z,2.70
2018-06-18T10:51:11.424Z,3.00
2018-06-18T10:53:38.796Z,3.00
2018-06-18T10:56:06.237Z,2.60
2018-06-18T10:58:33.710Z,2.70
2018-06-18T11:01:02.956Z,2.43
2018-06-18T11:03:30.304Z,2.10
2018-06-18T11:06:02.999Z,2.17
2018-06-18T11:08:30.508Z,2.40
2018-06-18T11:10:57.854Z,2.47
2018-06-18T11:13:25.610Z,2.20
2018-06-18T11:15:53.068Z,2.70
2018-06-18T11:18:25.680Z,2.83
2018-06-18T11:20:58.462Z,2.70
2018-06-18T11:23:31.137Z,2.40
2018-06-18T11:26:03.699Z,2.10
2018-06-18T11:28:31.315Z,2.27
2018-06-18T11:30:58.678Z,2.27
2018-06-18T11:33:25.999Z,2.40
2018-06-18T11:35:53.453Z,2.30
2018-06-18T11:38:20.893Z,2.57
2018-06-18T11:40:48.258Z,2.43
2018-06-18T11:43:15.637Z,2.67
2018-06-18T11:45:43.174Z,1.87
2018-06-18T11:48:12.379Z,2.43
2018-06-18T11:50:39.755Z,2.63
2018-06-18T11:53:07.208Z,2.30
2018-06-18T11:55:35.347Z,2.30
2018-06-18T11:58:02.828Z,2.00
2018-06-18T12:01:32.893Z,2.00
2018-06-18T12:04:05.466Z,2.30
2018-06-18T12:06:38.184Z,2.70
2018-06-18T12:09:12.437Z,2.60
2018-06-18T12:11:40.027Z,2.40
2018-06-18T12:14:07.454Z,2.60
2018-06-18T12:16:36.095Z,2.40
2018-06-18T12:19:04.416Z,2.60
2018-06-18T12:21:32.050Z,2.73
2018-06-18T12:23:59.796Z,1.70
2018-06-18T12:26:27.331Z,2.70
2018-06-18T12:28:54.859Z,2.63
2018-06-18T12:31:22.391Z,2.60
2018-06-18T12:33:49.994Z,1.97
2018-06-18T12:36:17.538Z,2.20
2018-06-18T12:38:45.079Z,2.50
2018-06-18T12:41:12.778Z,2.40
2018-06-18T12:43:41.631Z,2.20
2018-06-18T12:46:14.329Z,2.53
2018-06-18T12:48:47.140Z,2.20
2018-06-18T12:51:19.884Z,2.43
2018-06-18T12:53:53.438Z,2.37
2018-06-18T12:56:26.297Z,2.17
2018-06-18T12:58:53.729Z,1.90
2018-06-18T13:01:22.120Z,2.30
2018-06-18T13:03:49.637Z,2.23
2018-06-18T13:06:21.268Z,2.10
2018-06-18T13:08:55.670Z,2.20
2018-06-18T13:11:23.215Z,2.27
2018-06-18T13:13:50.526Z,2.70
2018-06-18T13:16:17.866Z,2.40
2018-06-18T13:18:45.274Z,2.20
2018-06-18T13:21:12.681Z,2.20
2018-06-18T13:23:40.193Z,2.20
2018-06-18T13:26:07.887Z,1.80
2018-06-18T13:28:35.676Z,2.37
2018-06-18T13:31:03.335Z,2.20
2018-06-18T13:33:30.822Z,2.10
2018-06-18T13:35:58.294Z,2.67
2018-06-18T13:38:31.081Z,2.30
2018-06-18T13:41:03.895Z,2.20
2018-06-18T13:43:36.685Z,2.50
2018-06-18T13:46:09.368Z,2.23
2018-06-18T13:48:41.969Z,2.50
2018-06-18T13:51:09.660Z,2.60
2018-06-18T13:53:37.248Z,2.10
2018-06-18T13:56:04.764Z,2.53
2018-06-18T13:58:33.080Z,2.13
2018-06-18T14:01:00.549Z,2.60
2018-06-18T14:03:28.359Z,2.50
2018-06-18T14:05:56.394Z,2.70
2018-06-18T14:08:23.859Z,2.30
2018-06-18T14:10:51.292Z,2.60
2018-06-18T14:13:18.908Z,2.57
2018-06-18T14:15:46.482Z,2.83
2018-06-18T14:18:14.001Z,2.30
2018-06-18T14:20:41.604Z,2.17
2018-06-18T14:23:09.045Z,1.93
2018-06-18T14:25:36.578Z,2.30
2018-06-18T14:28:04.075Z,2.73
2018-06-18T14:30:36.967Z,2.57
2018-06-18T14:33:09.750Z,2.57
2018-06-18T14:35:43.478Z,2.03
2018-06-18T14:40:19.007Z,2.40
2018-06-18T14:42:46.400Z,2.30
2018-06-18T14:45:13.898Z,2.50
2018-06-18T14:47:41.735Z,2.57
2018-06-18T14:50:09.211Z,2.90
2018-06-18T14:52:36.901Z,2.57
2018-06-18T14:55:04.932Z,2.20
2018-06-18T14:57:32.323Z,2.73
2018-06-18T15:00:02.615Z,3.13
2018-06-18T15:02:30.275Z,2.53
2018-06-18T15:04:57.951Z,2.47
2018-06-18T15:07:35.952Z,2.90
2018-06-18T15:10:03.630Z,2.30
2018-06-18T15:12:33.152Z,3.03
2018-06-18T15:15:06.242Z,2.63
2018-06-18T15:17:34.213Z,2.27
2018-06-18T15:20:01.836Z,3.10
2018-06-18T15:22:30.325Z,2.97
2018-06-18T15:24:59.340Z,2.77
2018-06-18T15:27:46.464Z,2.63
2018-06-18T15:30:14.101Z,1.93
2018-06-18T15:32:50.851Z,2.53
2018-06-18T15:35:18.600Z,2.63
2018-06-18T15:37:46.200Z,2.50
2018-06-18T15:40:13.778Z,2.50
2018-06-18T15:42:41.467Z,3.40
2018-06-18T15:45:09.185Z,2.30
2018-06-18T15:47:36.746Z,2.70
2018-06-18T15:50:04.412Z,2.00
2018-06-18T15:52:32.842Z,2.50
2018-06-18T15:55:00.259Z,2.30
2018-06-18T15:57:27.617Z,2.60
2018-06-18T15:59:55.030Z,2.90
2018-06-18T16:02:22.606Z,2.87
2018-06-18T16:04:49.975Z,2.90
2018-06-18T16:07:17.365Z,2.40
2018-06-18T16:09:44.725Z,2.50
2018-06-18T16:12:12.045Z,2.90
2018-06-18T16:14:39.584Z,2.80
2018-06-18T16:17:06.950Z,3.30
2018-06-18T16:19:34.708Z,3.17
2018-06-18T16:22:02.096Z,2.60
2018-06-18T16:24:29.852Z,2.73
2018-06-18T16:26:57.250Z,2.60
2018-06-18T16:29:24.708Z,3.10
2018-06-18T16:31:52.341Z,2.30
2018-06-18T16:34:19.723Z,2.43
2018-06-18T16:36:47.209Z,2.53
2018-06-18T16:39:14.544Z,2.40
2018-06-18T16:41:41.997Z,2.50
2018-06-18T16:44:09.344Z,2.50
2018-06-18T16:46:37.567Z,2.70
2018-06-18T16:49:04.997Z,2.17
2018-06-18T16:51:32.589Z,2.20
2018-06-18T16:53:59.984Z,2.60
2018-06-18T16:56:27.756Z,2.40
2018-06-18T16:58:55.184Z,3.40
2018-06-18T17:01:22.685Z,2.50
2018-06-18T17:03:50.144Z,2.77
2018-06-18T17:06:17.813Z,2.43
2018-06-18T17:08:45.246Z,2.50
2018-06-18T17:11:12.853Z,2.20
2018-06-18T17:13:40.287Z,2.10
2018-06-18T17:16:09.024Z,3.00
2018-06-18T17:18:36.924Z,4.37
2018-06-18T17:21:04.608Z,2.30
2018-06-18T17:23:32.469Z,1.80
2018-06-18T17:26:00.032Z,2.10
2018-06-18T17:28:27.639Z,2.03
2018-06-18T17:30:55.257Z,1.37
2018-06-18T17:33:22.853Z,2.17
2018-06-18T17:35:50.317Z,1.80
2018-06-18T17:38:18.013Z,2.30
2018-06-18T17:40:45.565Z,2.00
2018-06-18T17:43:13.047Z,2.27
2018-06-18T17:48:36.827Z,2.00
2018-06-18T17:51:05.954Z,2.03
2018-06-18T17:53:39.872Z,2.20
2018-06-18T17:56:10.739Z,2.13
2018-06-18T17:58:38.953Z,2.17
2018-06-18T18:01:11.333Z,2.20
2018-06-18T18:06:25.306Z,3.17
2018-06-18T18:08:53.016Z,1.83
2018-06-18T18:11:20.891Z,2.30
2018-06-18T18:13:48.617Z,2.00
2018-06-18T18:16:16.247Z,2.00
2018-06-18T18:18:44.086Z,2.17
2018-06-18T18:21:11.831Z,2.43
2018-06-18T18:23:45.284Z,2.20
2018-06-18T18:32:00.127Z,2.47
2018-06-18T18:34:35.059Z,2.50
2018-06-18T18:37:02.739Z,2.23
2018-06-18T18:39:31.282Z,2.07
2018-06-18T18:41:59.631Z,2.10
2018-06-18T18:44:27.148Z,1.90
2018-06-18T18:46:54.665Z,2.00
2018-06-18T18:49:22.684Z,2.10
2018-06-18T18:51:55.252Z,1.97
2018-06-18T18:56:30.624Z,2.10
2018-06-18T18:59:03.936Z,2.03
2018-06-18T19:01:31.445Z,2.17
2018-06-18T19:04:01.311Z,2.13
2018-06-18T19:06:29.159Z,2.10
2018-06-18T19:08:57.109Z,2.67
2018-06-18T19:11:24.762Z,2.10
2018-06-18T19:13:52.328Z,2.70
2018-06-18T19:16:20.102Z,2.30
2018-06-18T19:18:49.608Z,1.80
2018-06-18T19:21:19.529Z,2.77
2018-06-18T19:23:47.091Z,2.80
2018-06-18T19:26:15.562Z,2.30
2018-06-18T19:28:44.053Z,2.20
2018-06-18T19:31:13.706Z,2.23
2018-06-18T19:33:47.175Z,2.13
2018-06-18T19:36:14.616Z,2.50
2018-06-18T19:38:42.372Z,2.30
2018-06-18T19:41:09.910Z,3.37
2018-06-18T19:43:37.357Z,3.27
2018-06-18T19:46:07.214Z,2.53
2018-06-18T19:48:40.670Z,2.50
2018-06-18T19:51:08.964Z,2.37
2018-06-18T19:53:36.508Z,2.67
2018-06-18T19:56:10.067Z,2.67
2018-06-18T19:58:37.495Z,3.10
2018-06-18T20:01:07.336Z,2.43
2018-06-18T20:03:35.485Z,2.40
2018-06-18T20:06:03.896Z,2.57
2018-06-18T20:08:32.342Z,2.90
2018-06-18T20:11:00.416Z,2.57
2018-06-18T20:13:28.587Z,2.80
2018-06-18T20:15:56.664Z,2.43
2018-06-18T20:18:24.586Z,2.73
2018-06-18T20:20:52.429Z,2.70
2018-06-18T20:23:23.195Z,2.70
2018-06-18T20:25:55.623Z,2.90
2018-06-18T20:28:24.213Z,2.83
2018-06-18T20:30:53.809Z,2.67
2018-06-18T20:33:23.842Z,2.83
2018-06-18T20:36:08.683Z,3.00
2018-06-18T20:38:37.263Z,2.70
2018-06-18T20:41:07.455Z,2.33
2018-06-18T20:46:19.119Z,2.47
2018-06-18T20:48:46.971Z,2.70
2018-06-18T20:51:14.719Z,2.67
2018-06-18T20:53:42.388Z,2.90
2018-06-18T20:56:12.951Z,2.87
2018-06-18T20:58:40.480Z,2.67
2018-06-18T21:01:08.044Z,3.70
2018-06-18T21:03:36.024Z,3.33
2018-06-18T21:06:04.120Z,2.93
2018-06-18T21:08:32.138Z,2.83
2018-06-18T21:11:01.789Z,3.07
2018-06-18T21:13:30.414Z,2.80
2018-06-18T21:15:59.848Z,3.00
2018-06-18T21:18:27.460Z,2.73
2018-06-18T21:20:57.259Z,2.90
2018-06-18T21:23:25.288Z,3.00
2018-06-18T21:25:53.055Z,2.80
2018-06-18T21:28:20.767Z,2.63
2018-06-18T21:30:48.866Z,2.27
2018-06-18T21:33:16.498Z,2.83
2018-06-18T21:35:43.981Z,3.40
2018-06-18T21:38:11.485Z,3.20
2018-06-18T21:40:39.110Z,2.77
2018-06-18T21:43:06.832Z,2.70
2018-06-18T21:45:34.745Z,2.93
2018-06-18T21:48:02.223Z,3.20
2018-06-18T21:50:29.713Z,3.50
2018-06-18T21:52:57.868Z,3.00
2018-06-18T21:55:25.397Z,3.10
2018-06-18T21:57:52.946Z,3.07
2018-06-18T22:00:22.025Z,3.30
2018-06-18T22:02:49.679Z,3.23
2018-06-18T22:05:17.187Z,2.80
2018-06-18T22:07:45.189Z,3.37
2018-06-18T22:10:14.847Z,3.30
2018-06-18T22:12:42.392Z,3.20
2018-06-18T22:15:10.631Z,3.10
2018-06-18T22:17:38.080Z,2.70
2018-06-18T22:20:05.589Z,3.40
2018-06-18T22:22:33.047Z,2.77
2018-06-18T22:25:00.483Z,3.07
2018-06-18T22:27:28.152Z,3.17
2018-06-18T22:29:55.723Z,2.90
2018-06-18T22:32:23.252Z,3.00
2018-06-18T22:34:51.847Z,2.93
2018-06-18T22:37:19.799Z,2.83
2018-06-18T22:39:47.268Z,3.17
2018-06-18T22:42:14.614Z,3.40
2018-06-18T22:44:42.130Z,3.20
2018-06-18T22:47:09.596Z,2.90
2018-06-18T22:49:37.012Z,3.27
2018-06-18T22:52:04.359Z,2.90
2018-06-18T22:54:31.815Z,3.70
2018-06-18T22:56:59.284Z,3.40
2018-06-18T22:59:26.816Z,3.43
2018-06-18T23:01:54.727Z,2.90
2018-06-18T23:04:22.170Z,2.73
2018-06-18T23:06:49.758Z,3.00
2018-06-18T23:09:17.251Z,3.63
2018-06-18T23:11:44.738Z,3.33
2018-06-18T23:14:13.697Z,3.10
2018-06-18T23:16:41.193Z,3.73
2018-06-18T23:19:08.610Z,3.03
2018-06-18T23:21:36.523Z,2.90
2018-06-18T23:24:03.974Z,3.07
2018-06-18T23:26:31.385Z,3.00
2018-06-18T23:28:59.996Z,3.30
2018-06-18T23:31:27.491Z,3.00
2018-06-18T23:33:55.046Z,3.07
2018-06-18T23:36:22.513Z,3.00
2018-06-18T23:38:50.169Z,3.37
2018-06-18T23:41:17.930Z,3.20
2018-06-18T23:43:45.392Z,2.97
2018-06-18T23:46:12.926Z,3.50
2018-06-18T23:48:40.499Z,3.53
2018-06-18T23:51:08.004Z,3.30
2018-06-18T23:53:35.708Z,2.93
2018-06-18T23:56:03.261Z,3.03
2018-06-18T23:58:30.756Z,2.90
